createdAt,value
2016-11-16T00:00:46.021Z,20.35
2016-11-16T00:01:55.071Z,20.36
2016-11-16T00:03:04.076Z,20.38
2016-11-16T00:04:13.117Z,20.38
2016-11-16T00:05:21.829Z,20.41
2016-11-16T00:06:30.526Z,20.38
2016-11-16T00:07:39.253Z,20.41
2016-11-16T00:08:48.563Z,20.38
2016-11-16T00:09:57.293Z,20.39
2016-11-16T00:11:06.322Z,20.35
2016-11-16T00:12:15.977Z,20.41
2016-11-16T00:13:24.739Z,20.39
2016-11-16T00:14:33.760Z,20.38
2016-11-16T00:15:42.784Z,20.38
2016-11-16T00:16:52.727Z,20.38
2016-11-16T00:18:01.478Z,20.38
2016-11-16T00:19:10.514Z,20.38
2016-11-16T00:20:19.254Z,20.38
2016-11-16T00:21:28.638Z,20.42
2016-11-16T00:22:37.988Z,20.35
2016-11-16T00:23:47.343Z,20.36
2016-11-16T00:24:56.361Z,20.38
2016-11-16T00:26:05.115Z,20.39
2016-11-16T00:27:14.191Z,20.41
2016-11-16T00:28:23.529Z,20.35
2016-11-16T00:29:32.546Z,20.28
2016-11-16T00:30:41.864Z,20.28
2016-11-16T00:31:50.877Z,20.39
2016-11-16T00:32:59.912Z,20.39
2016-11-16T00:34:09.231Z,20.35
2016-11-16T00:35:18.284Z,20.29
2016-11-16T00:36:27.937Z,20.38
2016-11-16T00:37:36.685Z,20.32
2016-11-16T00:38:46.029Z,20.28
2016-11-16T00:39:54.778Z,20.33
2016-11-16T00:41:03.514Z,20.32
2016-11-16T00:42:12.248Z,20.28
2016-11-16T00:43:20.973Z,20.31
2016-11-16T00:44:29.991Z,20.38
2016-11-16T00:45:38.719Z,20.32
2016-11-16T00:46:47.426Z,20.32
2016-11-16T00:47:56.135Z,20.32
2016-11-16T00:49:05.199Z,20.32
2016-11-16T00:50:14.902Z,20.28
2016-11-16T00:51:24.228Z,20.28
2016-11-16T00:52:33.258Z,20.33
2016-11-16T00:53:41.971Z,20.24
2016-11-16T00:54:51.328Z,20.31
2016-11-16T00:56:00.153Z,20.28
2016-11-16T00:57:09.477Z,20.31
2016-11-16T00:58:18.197Z,20.32
2016-11-16T00:59:27.188Z,20.28
2016-11-16T01:00:35.965Z,20.35
2016-11-16T01:01:45.277Z,20.28
2016-11-16T01:02:54.297Z,20.33
2016-11-16T01:04:03.666Z,20.31
2016-11-16T01:05:12.674Z,20.31
2016-11-16T01:06:21.993Z,20.29
2016-11-16T01:07:31.034Z,20.31
2016-11-16T01:08:39.764Z,20.24
2016-11-16T01:09:48.475Z,20.29
2016-11-16T01:10:57.839Z,20.24
2016-11-16T01:12:06.885Z,20.28
2016-11-16T01:13:15.941Z,20.31
2016-11-16T01:14:24.650Z,20.32
2016-11-16T01:15:33.356Z,20.24
2016-11-16T01:16:42.383Z,20.31
2016-11-16T01:17:52.025Z,20.28
2016-11-16T01:19:01.037Z,20.17
2016-11-16T01:20:10.047Z,20.28
2016-11-16T01:21:19.453Z,20.26
2016-11-16T01:22:28.490Z,20.28
2016-11-16T01:23:37.505Z,20.23
2016-11-16T01:24:46.535Z,20.29
2016-11-16T01:25:55.860Z,20.29
2016-11-16T01:27:05.474Z,20.24
2016-11-16T01:28:14.511Z,20.29
2016-11-16T01:29:23.549Z,20.23
2016-11-16T01:30:32.580Z,20.28
2016-11-16T01:31:41.312Z,20.29
2016-11-16T01:32:50.299Z,20.14
2016-11-16T01:33:59.005Z,20.28
2016-11-16T01:35:08.064Z,20.2
2016-11-16T01:36:17.077Z,20.24
2016-11-16T01:37:26.128Z,20.21
2016-11-16T01:38:34.838Z,20.26
2016-11-16T01:39:43.861Z,20.2
2016-11-16T01:40:52.600Z,20.31
2016-11-16T01:42:01.642Z,20.28
2016-11-16T01:43:10.965Z,20.2
2016-11-16T01:44:19.966Z,20.32
2016-11-16T01:45:28.994Z,20.26
2016-11-16T01:46:38.616Z,20.28
2016-11-16T01:47:47.939Z,20.26
2016-11-16T01:48:56.637Z,20.24
2016-11-16T01:50:06.278Z,20.24
2016-11-16T01:51:15.630Z,20.26
2016-11-16T01:52:24.332Z,20.16
2016-11-16T01:53:33.346Z,20.26
2016-11-16T01:54:42.700Z,20.17
2016-11-16T01:55:51.401Z,20.29
2016-11-16T01:57:00.452Z,20.2
2016-11-16T01:58:09.476Z,20.29
2016-11-16T01:59:19.132Z,20.17
2016-11-16T02:00:27.831Z,20.18
2016-11-16T02:01:36.543Z,20.2
2016-11-16T02:02:45.880Z,20.2
2016-11-16T02:03:54.917Z,20.23
2016-11-16T02:05:03.626Z,20.32
2016-11-16T02:06:12.646Z,20.2
2016-11-16T02:07:22.024Z,20.28
2016-11-16T02:08:30.734Z,20.2
2016-11-16T02:09:39.756Z,20.24
2016-11-16T02:10:49.122Z,20.23
2016-11-16T02:11:58.469Z,20.16
2016-11-16T02:13:07.835Z,20.2
2016-11-16T02:14:17.257Z,20.18
2016-11-16T02:15:26.889Z,20.16
2016-11-16T02:16:36.250Z,20.26
2016-11-16T02:17:44.970Z,20.18
2016-11-16T02:18:54.329Z,20.16
2016-11-16T02:20:03.656Z,20.2
2016-11-16T02:21:12.364Z,20.17
2016-11-16T02:22:21.375Z,20.24
2016-11-16T02:23:30.393Z,20.17
2016-11-16T02:24:39.426Z,20.24
2016-11-16T02:25:48.761Z,20.21
2016-11-16T02:26:57.785Z,20.24
2016-11-16T02:28:07.103Z,20.13
2016-11-16T02:29:16.138Z,20.21
2016-11-16T02:30:24.856Z,20.21
2016-11-16T02:31:33.879Z,20.21
2016-11-16T02:32:43.199Z,20.2
2016-11-16T02:33:52.567Z,20.21
2016-11-16T02:35:01.282Z,20.2
2016-11-16T02:36:09.981Z,20.17
2016-11-16T02:37:19.005Z,20.21
2016-11-16T02:38:27.719Z,20.18
2016-11-16T02:39:36.744Z,20.21
2016-11-16T02:40:45.461Z,20.21
2016-11-16T02:41:54.485Z,20.17
2016-11-16T02:43:03.518Z,20.2
2016-11-16T02:44:12.260Z,20.21
2016-11-16T02:45:21.279Z,20.18
2016-11-16T02:46:30.278Z,20.18
2016-11-16T02:47:38.988Z,20.21
2016-11-16T02:48:47.986Z,20.31
2016-11-16T02:49:57.018Z,20.21
2016-11-16T02:51:05.761Z,20.21
2016-11-16T02:52:15.102Z,20.21
2016-11-16T02:53:24.143Z,20.23
2016-11-16T02:54:33.474Z,20.2
2016-11-16T02:55:42.811Z,20.2
2016-11-16T02:56:52.179Z,20.21
2016-11-16T02:58:00.889Z,20.16
2016-11-16T02:59:09.637Z,20.16
2016-11-16T03:00:18.953Z,20.17
2016-11-16T03:01:27.987Z,20.21
2016-11-16T03:02:37.600Z,20.18
2016-11-16T03:03:46.298Z,20.17
2016-11-16T03:04:54.986Z,20.18
2016-11-16T03:06:03.983Z,20.17
2016-11-16T03:07:13.310Z,20.18
2016-11-16T03:08:22.669Z,20.2
2016-11-16T03:09:31.433Z,20.17
2016-11-16T03:10:40.775Z,20.21
2016-11-16T03:11:50.136Z,20.17
2016-11-16T03:12:59.187Z,20.21
2016-11-16T03:14:08.182Z,20.2
2016-11-16T03:15:16.895Z,20.2
2016-11-16T03:16:26.212Z,20.21
2016-11-16T03:17:34.933Z,20.16
2016-11-16T03:18:44.287Z,20.18
2016-11-16T03:19:53.697Z,20.18
2016-11-16T03:21:02.735Z,20.16
2016-11-16T03:22:11.770Z,20.26
2016-11-16T03:23:20.810Z,20.21
2016-11-16T03:24:29.846Z,20.21
2016-11-16T03:25:38.552Z,20.21
2016-11-16T03:26:47.928Z,20.18
2016-11-16T03:27:57.572Z,20.24
2016-11-16T03:29:06.290Z,20.2
2016-11-16T03:30:15.680Z,20.21
2016-11-16T03:31:25.104Z,20.21
2016-11-16T03:32:34.164Z,20.21
2016-11-16T03:33:43.203Z,20.21
2016-11-16T03:34:52.233Z,20.17
2016-11-16T03:36:01.289Z,20.2
2016-11-16T03:37:09.990Z,20.17
2016-11-16T03:38:18.714Z,20.21
2016-11-16T03:39:27.856Z,20.16
2016-11-16T03:40:37.231Z,20.18
2016-11-16T03:41:46.259Z,20.14
2016-11-16T03:42:55.015Z,20.23
2016-11-16T03:44:04.085Z,20.2
2016-11-16T03:45:13.449Z,20.16
2016-11-16T03:46:22.190Z,20.16
2016-11-16T03:47:31.875Z,20.21
2016-11-16T03:48:40.930Z,20.17
2016-11-16T03:49:50.558Z,20.26
2016-11-16T03:50:59.904Z,20.16
2016-11-16T03:52:08.929Z,20.17
2016-11-16T03:53:18.253Z,20.21
2016-11-16T03:54:27.623Z,20.21
2016-11-16T03:55:36.980Z,20.24
2016-11-16T03:56:45.985Z,20.21
2016-11-16T03:57:55.358Z,20.2
2016-11-16T03:59:04.381Z,20.17
2016-11-16T04:00:13.116Z,20.2
2016-11-16T04:01:22.187Z,20.16
2016-11-16T04:02:31.503Z,20.21
2016-11-16T04:03:40.262Z,20.16
2016-11-16T04:04:49.598Z,20.24
2016-11-16T04:05:58.421Z,20.21
2016-11-16T04:07:07.433Z,20.17
2016-11-16T04:08:16.754Z,20.21
2016-11-16T04:09:26.091Z,20.18
2016-11-16T04:10:35.115Z,20.2
2016-11-16T04:11:43.925Z,20.2
2016-11-16T04:12:52.684Z,20.11
2016-11-16T04:14:01.397Z,20.2
2016-11-16T04:15:10.140Z,20.16
2016-11-16T04:16:18.873Z,20.21
2016-11-16T04:17:28.521Z,20.21
2016-11-16T04:18:37.568Z,20.2
2016-11-16T04:19:46.626Z,20.21
2016-11-16T04:20:55.331Z,20.23
2016-11-16T04:22:04.367Z,20.21
2016-11-16T04:23:13.158Z,20.13
2016-11-16T04:24:22.530Z,20.13
2016-11-16T04:25:31.574Z,20.21
2016-11-16T04:26:40.931Z,20.21
2016-11-16T04:27:50.287Z,20.18
2016-11-16T04:28:59.043Z,20.2
2016-11-16T04:30:07.818Z,20.17
2016-11-16T04:31:16.877Z,20.21
2016-11-16T04:32:25.620Z,20.2
2016-11-16T04:33:35.021Z,20.23
2016-11-16T04:34:44.328Z,20.26
2016-11-16T04:35:53.951Z,20.1
2016-11-16T04:37:03.631Z,20.16
2016-11-16T04:38:13.017Z,20.16
2016-11-16T04:39:21.745Z,20.13
2016-11-16T04:40:30.479Z,20.13
2016-11-16T04:41:39.510Z,20.21
2016-11-16T04:42:48.576Z,20.17
2016-11-16T04:43:57.334Z,20.23
2016-11-16T04:45:06.161Z,20.21
2016-11-16T04:46:15.858Z,20.16
2016-11-16T04:47:24.863Z,20.21
2016-11-16T04:48:33.872Z,20.2
2016-11-16T04:49:42.884Z,20.17
2016-11-16T04:50:51.571Z,20.2
2016-11-16T04:52:00.606Z,20.18
2016-11-16T04:53:09.626Z,20.13
2016-11-16T04:54:18.341Z,20.17
2016-11-16T04:55:27.370Z,20.17
2016-11-16T04:56:36.701Z,20.13
2016-11-16T04:57:46.115Z,20.18
2016-11-16T04:58:55.740Z,20.16
2016-11-16T05:00:05.092Z,20.06
2016-11-16T05:01:13.801Z,20.21
2016-11-16T05:02:23.157Z,20.2
2016-11-16T05:03:32.498Z,20.1
2016-11-16T05:04:41.229Z,20.17
2016-11-16T05:05:50.243Z,20.21
2016-11-16T05:06:58.986Z,20.1
2016-11-16T05:08:08.634Z,20.16
2016-11-16T05:09:17.757Z,20.13
2016-11-16T05:10:26.819Z,20.21
2016-11-16T05:11:35.924Z,20.21
2016-11-16T05:12:44.948Z,20.23
2016-11-16T05:13:54.347Z,20.18
2016-11-16T05:15:03.738Z,20.17
2016-11-16T05:16:13.149Z,20.2
2016-11-16T05:17:22.188Z,20.14
2016-11-16T05:18:30.942Z,20.17
2016-11-16T05:19:39.680Z,20.13
2016-11-16T05:20:48.426Z,20.21
2016-11-16T05:21:57.421Z,20.13
2016-11-16T05:23:06.444Z,20.1
2016-11-16T05:24:15.476Z,20.11
2016-11-16T05:25:24.252Z,20.2
2016-11-16T05:26:33.305Z,20.13
2016-11-16T05:27:42.340Z,20.06
2016-11-16T05:28:51.036Z,20.21
2016-11-16T05:30:00.355Z,20.08
2016-11-16T05:31:09.415Z,20.18
2016-11-16T05:32:18.149Z,20.13
2016-11-16T05:33:26.880Z,20.16
2016-11-16T05:34:36.256Z,20.08
2016-11-16T05:35:45.264Z,20.13
2016-11-16T05:36:53.975Z,20.11
2016-11-16T05:38:03.303Z,20.13
2016-11-16T05:39:12.997Z,20.2
2016-11-16T05:40:21.796Z,20.16
2016-11-16T05:41:30.815Z,20.2
2016-11-16T05:42:39.571Z,20.1
2016-11-16T05:43:48.607Z,20.05
2016-11-16T05:44:57.960Z,20.14
2016-11-16T05:46:07.313Z,20.1
2016-11-16T05:47:16.034Z,20.16
2016-11-16T05:48:25.372Z,20.13
2016-11-16T05:49:34.724Z,20.17
2016-11-16T05:50:44.354Z,20.18
2016-11-16T05:51:53.667Z,20.18
2016-11-16T05:53:02.405Z,20.23
2016-11-16T05:54:11.430Z,20.18
2016-11-16T05:55:20.782Z,20.21
2016-11-16T05:56:30.110Z,20.32
2016-11-16T05:57:39.151Z,20.35
2016-11-16T05:58:47.849Z,20.47
2016-11-16T05:59:56.556Z,20.48
2016-11-16T06:01:05.285Z,20.54
2016-11-16T06:02:14.377Z,20.54
2016-11-16T06:03:23.442Z,20.61
2016-11-16T06:04:32.455Z,20.73
2016-11-16T06:05:41.139Z,20.7
2016-11-16T06:06:50.163Z,20.7
2016-11-16T06:07:59.232Z,20.69
2016-11-16T06:09:08.282Z,20.8
2016-11-16T06:10:17.274Z,20.87
2016-11-16T06:11:26.632Z,20.94
2016-11-16T06:12:35.690Z,20.94
2016-11-16T06:13:44.695Z,21.03
2016-11-16T06:14:53.688Z,21.03
2016-11-16T06:16:02.708Z,21.06
2016-11-16T06:17:11.424Z,21.12
2016-11-16T06:18:20.462Z,21.14
2016-11-16T06:19:29.458Z,21.16
2016-11-16T06:20:39.372Z,21.19
2016-11-16T06:21:48.098Z,21.25
2016-11-16T06:22:56.861Z,21.28
2016-11-16T06:24:06.161Z,21.31
2016-11-16T06:25:15.174Z,21.4
2016-11-16T06:26:24.183Z,21.29
2016-11-16T06:27:32.906Z,21.4
2016-11-16T06:28:41.924Z,21.46
2016-11-16T06:29:50.626Z,21.56
2016-11-16T06:30:59.355Z,21.56
2016-11-16T06:32:08.668Z,21.53
2016-11-16T06:33:17.377Z,21.69
2016-11-16T06:34:26.109Z,21.62
2016-11-16T06:35:35.124Z,21.64
2016-11-16T06:36:43.829Z,21.72
2016-11-16T06:37:53.172Z,21.69
2016-11-16T06:39:02.196Z,21.79
2016-11-16T06:40:11.533Z,21.77
2016-11-16T06:41:20.555Z,21.83
2016-11-16T06:42:29.554Z,21.84
2016-11-16T06:43:38.878Z,21.77
2016-11-16T06:44:47.896Z,21.88
2016-11-16T06:45:56.903Z,21.94
2016-11-16T06:47:06.221Z,21.92
2016-11-16T06:48:15.540Z,21.98
2016-11-16T06:49:25.174Z,21.84
2016-11-16T06:50:34.797Z,21.98
2016-11-16T06:51:43.797Z,22
2016-11-16T06:52:52.837Z,21.92
2016-11-16T06:54:01.865Z,21.96
2016-11-16T06:55:11.188Z,21.98
2016-11-16T06:56:19.919Z,22.1
2016-11-16T06:57:28.633Z,22.12
2016-11-16T06:58:37.647Z,22.07
2016-11-16T06:59:46.716Z,22.05
2016-11-16T07:00:55.765Z,22.14
2016-11-16T07:02:04.793Z,22.21
2016-11-16T07:03:14.195Z,22.2
2016-11-16T07:04:22.952Z,22.18
2016-11-16T07:05:32.269Z,22.2
2016-11-16T07:06:41.269Z,22.21
2016-11-16T07:07:50.273Z,22.25
2016-11-16T07:08:59.358Z,22.28
2016-11-16T07:10:08.708Z,22.28
2016-11-16T07:11:17.412Z,22.35
2016-11-16T07:12:26.778Z,22.25
2016-11-16T07:13:35.503Z,22.35
2016-11-16T07:14:44.528Z,22.37
2016-11-16T07:15:53.550Z,22.46
2016-11-16T07:17:02.281Z,22.46
2016-11-16T07:18:11.278Z,22.39
2016-11-16T07:19:20.590Z,22.42
2016-11-16T07:20:29.590Z,22.49
2016-11-16T07:21:38.917Z,22.45
2016-11-16T07:22:47.625Z,22.58
2016-11-16T07:23:56.360Z,22.6
2016-11-16T07:25:05.380Z,22.64
2016-11-16T07:26:14.389Z,22.58
2016-11-16T07:27:23.393Z,22.55
2016-11-16T07:28:32.697Z,22.57
2016-11-16T07:29:42.054Z,22.49
2016-11-16T07:30:50.766Z,22.6
2016-11-16T07:32:00.081Z,22.52
2016-11-16T07:33:08.799Z,22.54
2016-11-16T07:34:17.832Z,22.54
2016-11-16T07:35:26.946Z,22.52
2016-11-16T07:36:35.959Z,22.52
2016-11-16T07:37:46.252Z,22.57
2016-11-16T07:38:54.975Z,22.61
2016-11-16T07:40:03.670Z,22.58
2016-11-16T07:41:12.734Z,22.62
2016-11-16T07:42:21.734Z,22.58
2016-11-16T07:43:30.736Z,22.51
2016-11-16T07:44:39.773Z,22.57
2016-11-16T07:45:49.098Z,22.47
2016-11-16T07:46:58.430Z,22.51
2016-11-16T07:48:07.757Z,22.55
2016-11-16T07:49:16.515Z,22.57
2016-11-16T07:50:25.295Z,22.52
2016-11-16T07:51:34.345Z,22.67
2016-11-16T07:52:43.094Z,22.57
2016-11-16T07:53:51.807Z,22.58
2016-11-16T07:55:00.511Z,22.51
2016-11-16T07:56:09.531Z,22.62
2016-11-16T07:57:18.527Z,22.54
2016-11-16T07:58:27.239Z,22.55
2016-11-16T07:59:36.230Z,22.57
2016-11-16T08:00:45.267Z,22.58
2016-11-16T08:01:54.279Z,22.58
2016-11-16T08:03:03.319Z,22.67
2016-11-16T08:04:12.623Z,22.65
2016-11-16T08:05:21.929Z,22.55
2016-11-16T08:06:30.935Z,22.55
2016-11-16T08:07:40.261Z,22.68
2016-11-16T08:08:49.278Z,22.57
2016-11-16T08:09:58.896Z,22.72
2016-11-16T08:11:08.208Z,22.58
2016-11-16T08:12:17.212Z,22.6
2016-11-16T08:13:26.817Z,22.61
2016-11-16T08:14:35.856Z,22.72
2016-11-16T08:15:45.198Z,22.65
2016-11-16T08:16:54.814Z,22.73
2016-11-16T08:18:03.519Z,22.64
2016-11-16T08:19:12.535Z,22.73
2016-11-16T08:20:21.861Z,22.86
2016-11-16T08:21:31.505Z,22.9
2016-11-16T08:22:40.518Z,23.01
2016-11-16T08:23:49.899Z,23
2016-11-16T08:24:59.309Z,23.02
2016-11-16T08:26:08.689Z,23.01
2016-11-16T08:27:18.118Z,23.01
2016-11-16T08:28:27.490Z,22.94
2016-11-16T08:29:36.855Z,22.86
2016-11-16T08:30:45.899Z,22.86
2016-11-16T08:31:54.914Z,22.79
2016-11-16T08:33:04.573Z,22.77
2016-11-16T08:34:13.954Z,22.75
2016-11-16T08:35:22.992Z,22.72
2016-11-16T08:36:31.713Z,22.72
2016-11-16T08:37:41.108Z,22.61
2016-11-16T08:38:50.459Z,22.58
2016-11-16T08:39:59.819Z,22.6
2016-11-16T08:41:08.560Z,22.67
2016-11-16T08:42:17.952Z,22.6
2016-11-16T08:43:26.967Z,22.58
2016-11-16T08:44:36.423Z,22.58
2016-11-16T08:45:45.484Z,22.57
2016-11-16T08:46:54.532Z,22.45
2016-11-16T08:48:04.197Z,22.43
2016-11-16T08:49:13.274Z,22.37
2016-11-16T08:50:22.285Z,22.43
2016-11-16T08:51:31.421Z,22.49
2016-11-16T08:52:40.473Z,22.37
2016-11-16T08:53:49.213Z,22.36
2016-11-16T08:54:58.271Z,22.3
2016-11-16T08:56:07.003Z,22.3
2016-11-16T08:57:16.104Z,22.24
2016-11-16T08:58:24.844Z,22.27
2016-11-16T08:59:34.579Z,22.25
2016-11-16T09:00:43.284Z,22.2
2016-11-16T09:01:52.641Z,22.2
2016-11-16T09:03:01.438Z,22.2
2016-11-16T09:04:10.815Z,22.18
2016-11-16T09:05:19.562Z,22.24
2016-11-16T09:06:28.631Z,22.14
2016-11-16T09:07:37.382Z,22.15
2016-11-16T09:08:46.458Z,22.15
2016-11-16T09:09:55.539Z,22.09
2016-11-16T09:11:04.276Z,22.06
2016-11-16T09:12:13.648Z,22.1
2016-11-16T09:13:22.794Z,22.02
2016-11-16T09:14:32.454Z,21.94
2016-11-16T09:15:42.426Z,21.96
2016-11-16T09:16:51.761Z,22.02
2016-11-16T09:18:01.145Z,21.96
2016-11-16T09:19:09.986Z,21.94
2016-11-16T09:20:19.410Z,21.98
2016-11-16T09:21:28.223Z,22.03
2016-11-16T09:22:37.281Z,21.86
2016-11-16T09:23:46.560Z,21.99
2016-11-16T09:24:55.724Z,21.9
2016-11-16T09:26:04.512Z,21.88
2016-11-16T09:27:13.224Z,21.9
2016-11-16T09:28:22.259Z,21.9
2016-11-16T09:29:31.034Z,21.91
2016-11-16T09:30:40.073Z,21.91
2016-11-16T09:31:49.418Z,21.96
2016-11-16T09:32:58.845Z,21.96
2016-11-16T09:34:07.928Z,21.88
2016-11-16T09:35:17.333Z,21.82
2016-11-16T09:36:26.466Z,21.8
2016-11-16T09:37:35.531Z,21.72
2016-11-16T09:38:44.586Z,21.88
2016-11-16T09:39:53.934Z,21.8
2016-11-16T09:41:03.050Z,21.75
2016-11-16T09:42:12.131Z,21.84
2016-11-16T09:43:21.157Z,21.82
2016-11-16T09:44:30.156Z,21.8
2016-11-16T09:45:38.895Z,21.79
2016-11-16T09:46:47.675Z,21.72
2016-11-16T09:47:57.017Z,21.77
2016-11-16T09:49:05.742Z,21.77
2016-11-16T09:50:14.544Z,21.69
2016-11-16T09:51:23.300Z,21.62
2016-11-16T09:52:32.651Z,21.68
2016-11-16T09:53:41.675Z,21.69
2016-11-16T09:54:50.419Z,21.74
2016-11-16T09:55:59.425Z,21.62
2016-11-16T09:57:08.199Z,21.64
2016-11-16T09:58:17.250Z,21.67
2016-11-16T09:59:25.990Z,21.64
2016-11-16T10:00:35.019Z,21.68
2016-11-16T10:01:44.162Z,21.67
2016-11-16T10:02:53.370Z,21.71
2016-11-16T10:04:02.398Z,21.65
2016-11-16T10:05:12.086Z,21.64
2016-11-16T10:06:21.467Z,21.61
2016-11-16T10:07:30.224Z,21.61
2016-11-16T10:08:39.333Z,21.64
2016-11-16T10:09:48.411Z,21.62
2016-11-16T10:10:57.790Z,21.58
2016-11-16T10:12:07.470Z,21.65
2016-11-16T10:13:16.533Z,21.58
2016-11-16T10:14:25.301Z,21.58
2016-11-16T10:15:34.316Z,21.62
2016-11-16T10:16:43.342Z,21.56
2016-11-16T10:17:52.376Z,21.58
2016-11-16T10:19:01.384Z,21.54
2016-11-16T10:20:10.394Z,21.53
2016-11-16T10:21:19.459Z,21.59
2016-11-16T10:22:29.428Z,21.58
2016-11-16T10:23:38.489Z,21.56
2016-11-16T10:24:47.190Z,21.49
2016-11-16T10:25:56.197Z,21.56
2016-11-16T10:27:05.546Z,21.56
2016-11-16T10:28:14.605Z,21.54
2016-11-16T10:29:23.990Z,21.53
2016-11-16T10:30:33.304Z,21.49
2016-11-16T10:31:42.331Z,21.59
2016-11-16T10:32:51.653Z,21.56
2016-11-16T10:34:00.785Z,21.46
2016-11-16T10:35:09.866Z,21.53
2016-11-16T10:36:19.270Z,21.47
2016-11-16T10:37:28.337Z,21.49
2016-11-16T10:38:37.688Z,21.52
2016-11-16T10:39:46.706Z,21.44
2016-11-16T10:40:56.029Z,21.56
2016-11-16T10:42:05.052Z,21.43
2016-11-16T10:43:14.080Z,21.44
2016-11-16T10:44:23.407Z,21.46
2016-11-16T10:45:32.444Z,21.44
2016-11-16T10:46:41.483Z,21.37
2016-11-16T10:47:50.832Z,21.49
2016-11-16T10:48:59.890Z,21.4
2016-11-16T10:50:08.921Z,21.42
2016-11-16T10:51:17.960Z,21.43
2016-11-16T10:52:26.664Z,21.4
2016-11-16T10:53:35.750Z,21.37
2016-11-16T10:54:44.871Z,21.34
2016-11-16T10:55:53.877Z,21.43
2016-11-16T10:57:02.907Z,21.34
2016-11-16T10:58:11.919Z,21.42
2016-11-16T10:59:20.716Z,21.42
2016-11-16T11:00:30.095Z,21.43
2016-11-16T11:01:39.162Z,21.46
2016-11-16T11:02:48.184Z,21.42
2016-11-16T11:03:57.516Z,21.38
2016-11-16T11:05:06.574Z,21.43
2016-11-16T11:06:15.962Z,21.46
2016-11-16T11:07:25.035Z,21.46
2016-11-16T11:08:34.060Z,21.4
2016-11-16T11:09:43.088Z,21.42
2016-11-16T11:10:52.457Z,21.44
2016-11-16T11:12:01.817Z,21.42
2016-11-16T11:13:11.472Z,21.43
2016-11-16T11:14:20.806Z,21.43
2016-11-16T11:15:29.807Z,21.49
2016-11-16T11:16:39.206Z,21.4
2016-11-16T11:17:48.511Z,21.44
2016-11-16T11:18:57.229Z,21.43
2016-11-16T11:20:05.977Z,21.4
2016-11-16T11:21:14.699Z,21.43
2016-11-16T11:22:24.094Z,21.43
2016-11-16T11:23:32.821Z,21.44
2016-11-16T11:24:42.218Z,21.44
2016-11-16T11:25:50.997Z,21.4
2016-11-16T11:27:00.023Z,21.4
2016-11-16T11:28:09.093Z,21.4
2016-11-16T11:29:18.423Z,21.42
2016-11-16T11:30:28.051Z,21.46
2016-11-16T11:31:37.076Z,21.44
2016-11-16T11:32:46.124Z,21.43
2016-11-16T11:33:55.763Z,21.42
2016-11-16T11:35:04.810Z,21.43
2016-11-16T11:36:13.866Z,21.43
2016-11-16T11:37:22.913Z,21.46
2016-11-16T11:38:32.021Z,21.4
2016-11-16T11:39:40.818Z,21.44
2016-11-16T11:40:50.189Z,21.5
2016-11-16T11:41:59.214Z,21.34
2016-11-16T11:43:07.959Z,21.38
2016-11-16T11:44:16.732Z,21.38
2016-11-16T11:45:26.386Z,21.38
2016-11-16T11:46:35.737Z,21.43
2016-11-16T11:47:44.492Z,21.42
2016-11-16T11:48:53.529Z,21.4
2016-11-16T11:50:02.340Z,21.43
2016-11-16T11:51:11.378Z,21.43
2016-11-16T11:52:20.112Z,21.43
2016-11-16T11:53:29.151Z,21.47
2016-11-16T11:54:38.806Z,21.42
2016-11-16T11:55:48.497Z,21.44
2016-11-16T11:56:57.555Z,21.42
2016-11-16T11:58:06.327Z,21.44
2016-11-16T11:59:15.652Z,21.49
2016-11-16T12:00:24.774Z,21.44
2016-11-16T12:01:33.505Z,21.46
2016-11-16T12:02:42.263Z,21.38
2016-11-16T12:03:51.621Z,21.4
2016-11-16T12:05:00.969Z,21.47
2016-11-16T12:06:09.702Z,21.37
2016-11-16T12:07:18.748Z,21.35
2016-11-16T12:08:27.777Z,21.46
2016-11-16T12:09:36.506Z,21.4
2016-11-16T12:10:46.221Z,21.43
2016-11-16T12:11:55.596Z,21.47
2016-11-16T12:13:04.361Z,21.46
2016-11-16T12:14:13.190Z,21.42
2016-11-16T12:15:22.261Z,21.44
2016-11-16T12:16:31.605Z,21.43
2016-11-16T12:17:40.390Z,21.42
2016-11-16T12:18:49.178Z,21.4
2016-11-16T12:19:58.531Z,21.43
2016-11-16T12:21:07.626Z,21.42
2016-11-16T12:22:17.016Z,21.38
2016-11-16T12:23:26.342Z,21.42
2016-11-16T12:24:35.404Z,21.44
2016-11-16T12:25:44.404Z,21.43
2016-11-16T12:26:54.093Z,21.46
2016-11-16T12:28:02.928Z,21.47
2016-11-16T12:29:12.271Z,21.47
2016-11-16T12:30:20.993Z,21.47
2016-11-16T12:31:30.357Z,21.35
2016-11-16T12:32:39.143Z,21.42
2016-11-16T12:33:47.858Z,21.43
2016-11-16T12:34:56.703Z,21.47
2016-11-16T12:36:06.128Z,21.43
2016-11-16T12:37:14.907Z,21.46
2016-11-16T12:38:23.632Z,21.47
2016-11-16T12:39:32.396Z,21.38
2016-11-16T12:40:41.823Z,21.34
2016-11-16T12:41:50.565Z,21.37
2016-11-16T12:42:59.346Z,21.37
2016-11-16T12:44:08.400Z,21.35
2016-11-16T12:45:17.436Z,21.35
2016-11-16T12:46:27.121Z,21.37
2016-11-16T12:47:36.462Z,21.37
2016-11-16T12:48:45.237Z,21.37
2016-11-16T12:49:54.577Z,21.37
2016-11-16T12:51:03.652Z,21.37
2016-11-16T12:52:13.058Z,21.37
2016-11-16T12:53:22.145Z,21.32
2016-11-16T12:54:31.195Z,21.34
2016-11-16T12:55:39.925Z,21.42
2016-11-16T12:56:49.277Z,21.35
2016-11-16T12:57:57.999Z,21.42
2016-11-16T12:59:07.063Z,21.35
2016-11-16T13:00:16.124Z,21.32
2016-11-16T13:01:25.183Z,21.35
2016-11-16T13:02:34.203Z,21.37
2016-11-16T13:03:42.959Z,21.35
2016-11-16T13:04:52.282Z,21.37
2016-11-16T13:06:01.599Z,21.38
2016-11-16T13:07:10.707Z,21.32
2016-11-16T13:08:19.756Z,21.37
2016-11-16T13:09:29.079Z,21.32
2016-11-16T13:10:37.776Z,21.31
2016-11-16T13:11:46.527Z,21.38
2016-11-16T13:12:55.551Z,21.4
2016-11-16T13:14:04.293Z,21.35
2016-11-16T13:15:13.049Z,21.35
2016-11-16T13:16:22.454Z,21.35
2016-11-16T13:17:31.533Z,21.35
2016-11-16T13:18:40.561Z,21.32
2016-11-16T13:19:49.851Z,21.38
2016-11-16T13:20:58.937Z,21.38
2016-11-16T13:22:08.047Z,21.35
2016-11-16T13:23:17.393Z,21.32
2016-11-16T13:24:26.480Z,21.34
2016-11-16T13:25:35.263Z,21.37
2016-11-16T13:26:44.328Z,21.37
2016-11-16T13:27:53.444Z,21.4
2016-11-16T13:29:02.826Z,21.42
2016-11-16T13:30:12.208Z,21.38
2016-11-16T13:31:21.253Z,21.34
2016-11-16T13:32:30.603Z,21.4
2016-11-16T13:33:40.251Z,21.35
2016-11-16T13:34:48.996Z,21.34
2016-11-16T13:35:57.708Z,21.44
2016-11-16T13:37:06.786Z,21.35
2016-11-16T13:38:16.487Z,21.34
2016-11-16T13:39:25.888Z,21.35
2016-11-16T13:40:34.945Z,21.42
2016-11-16T13:41:43.718Z,21.32
2016-11-16T13:42:53.085Z,21.37
2016-11-16T13:44:02.745Z,21.42
2016-11-16T13:45:11.450Z,21.37
2016-11-16T13:46:20.514Z,21.4
2016-11-16T13:47:29.546Z,21.35
2016-11-16T13:48:38.582Z,21.38
2016-11-16T13:49:47.316Z,21.38
2016-11-16T13:50:56.345Z,21.35
2016-11-16T13:52:05.143Z,21.35
2016-11-16T13:53:14.185Z,21.37
2016-11-16T13:54:23.227Z,21.38
2016-11-16T13:55:32.244Z,21.32
2016-11-16T13:56:41.053Z,21.31
2016-11-16T13:57:50.436Z,21.28
2016-11-16T13:58:59.173Z,21.31
2016-11-16T14:00:08.255Z,21.29
2016-11-16T14:01:18.057Z,21.32
2016-11-16T14:02:27.122Z,21.32
2016-11-16T14:03:35.840Z,21.31
2016-11-16T14:04:44.906Z,21.29
2016-11-16T14:05:54.621Z,21.29
2016-11-16T14:07:03.628Z,21.29
2016-11-16T14:08:12.707Z,21.25
2016-11-16T14:09:22.084Z,21.25
2016-11-16T14:10:31.162Z,21.34
2016-11-16T14:11:40.190Z,21.31
2016-11-16T14:12:49.251Z,21.32
2016-11-16T14:13:58.009Z,21.27
2016-11-16T14:15:07.113Z,21.32
2016-11-16T14:16:15.867Z,21.31
2016-11-16T14:17:24.602Z,21.28
2016-11-16T14:18:33.952Z,21.31
2016-11-16T14:19:43.022Z,21.27
2016-11-16T14:20:52.072Z,21.29
2016-11-16T14:22:01.162Z,21.27
2016-11-16T14:23:09.906Z,21.28
2016-11-16T14:24:44.597Z,21.27
2016-11-16T14:25:53.390Z,21.32
2016-11-16T14:27:02.091Z,21.29
2016-11-16T14:28:10.825Z,21.28
2016-11-16T14:29:19.535Z,21.28
2016-11-16T14:30:28.295Z,21.29
2016-11-16T14:31:37.318Z,21.27
2016-11-16T14:32:46.045Z,21.28
2016-11-16T14:33:54.774Z,21.24
2016-11-16T14:35:03.521Z,21.27
2016-11-16T14:36:12.526Z,21.32
2016-11-16T14:37:21.590Z,21.25
2016-11-16T14:38:30.913Z,21.29
2016-11-16T14:39:40.251Z,21.32
2016-11-16T14:40:49.563Z,21.27
2016-11-16T14:41:58.919Z,21.27
2016-11-16T14:43:07.995Z,21.27
2016-11-16T14:44:17.024Z,21.32
2016-11-16T14:45:26.331Z,21.28
2016-11-16T14:46:35.834Z,21.22
2016-11-16T14:47:44.576Z,21.22
2016-11-16T14:48:54.533Z,21.19
2016-11-16T14:50:03.279Z,21.28
2016-11-16T14:51:12.633Z,21.25
2016-11-16T14:52:21.637Z,21.27
2016-11-16T14:53:31.261Z,21.19